Terminal Aerodrome Forecast
Issued by NWS Sioux Falls, SD

Home | Current Version | Previous Version | Graphics & Text | Print | Product List | Glossary On
Versions: 1 2 3 4 5 6 7 8 9 10 11 12 13
000
FTUS43 KFSD 270522
TAFFSD
TAF
KFSD 270522Z 2706/2806 17008KT P6SM SCT120 BKN250
     FM271000 11004KT P6SM SCT090 BKN110
     FM271800 VRB03KT P6SM BKN090
     FM272000 04006KT P6SM SHRA VCTS BKN060CB
     FM280000 35007KT P6SM BKN070=

USA.gov is the U.S. government's official web portal to all federal, state and local government web resources and services.